RAWS Data


Desert Springs RAWS, Nevada

:            LST     in     mph    Deg   Deg F  Deg F    %    volts   Deg    mph   w/m2 
:   Date    Time   Precip  Wind  Wind   Av Air  Fuel   Rel  Battery   Dir Mx Gust Solar 
:YYYY/MM/DD hh:mm          Speed Direc   Temp   Temp HumidtyVoltage MxGust Speed   Rad. 
2002/01/01 00:00   4.11    1.0  263.0   38.0   36.0   88.0   12.9  136.0    6.0    2.0
2002/01/01 01:00   4.11    1.0   71.0   38.0   36.0   91.0   12.9  217.0    2.0    0.0
2002/01/01 02:00   4.11    2.0  154.0   39.0   37.0   89.0   12.9  128.0    6.0    0.0
2002/01/01 03:00   4.11    1.0  179.0   38.0   37.0   92.0   12.9  273.0    4.0    2.0
2002/01/01 04:00   4.11    6.0  121.0   38.0   37.0   91.0   12.9  116.0    7.0    0.0
2002/01/01 05:00   4.11    3.0  225.0   37.0   37.0   92.0   12.9  129.0    7.0    0.0
2002/01/01 06:00   4.11    0.0   72.0   37.0   37.0   94.0   12.9  233.0    4.0    0.0
2002/01/01 07:00   4.11    4.0  126.0   39.0   37.0   90.0   12.9  119.0    7.0    0.0
2002/01/01 08:00   4.11    0.0  299.0   39.0   38.0   88.0   12.9  120.0    4.0   20.0
2002/01/01 09:00   4.11    0.0   10.0   40.0   39.0   86.0   12.9  243.0    1.0   43.0
2002/01/01 10:00   4.11    0.0  108.0   40.0   40.0   90.0   12.9  238.0    1.0   58.0
2002/01/01 11:00   4.11    3.0  128.0   40.0   40.0   93.0   12.9  122.0    5.0   68.0
2002/01/01 12:00   4.12    0.0  257.0   40.0   40.0   91.0   12.9  215.0    5.0   59.0
2002/01/01 13:00   4.12    1.0   98.0   41.0   41.0   87.0   13.0  113.0    4.0   69.0
2002/01/01 14:00   4.12    0.0   81.0   41.0   41.0   88.0   12.9  103.0    2.0   57.0
2002/01/01 15:00   4.12    2.0   95.0   42.0   41.0   84.0   12.9  100.0    4.0   80.0
2002/01/01 16:00   4.12    6.0  139.0   41.0   40.0   85.0   12.9  142.0    8.0   26.0
2002/01/01 17:00   4.12    6.0  150.0   40.0   39.0   85.0   12.8  140.0    9.0    0.0
2002/01/01 18:00   4.12    7.0  138.0   39.0   38.0   88.0   12.8  146.0   10.0    0.0
2002/01/01 19:00   4.12    4.0  143.0   39.0   37.0   85.0   12.8  130.0    8.0    0.0
2002/01/01 20:00   4.12    8.0  148.0   39.0   37.0   84.0   12.8  149.0   11.0    0.0
2002/01/01 21:00   4.12    1.0  233.0   37.0   34.0   88.0   12.8  139.0   11.0    0.0
2002/01/01 22:00   4.12    2.0  164.0   37.0   34.0   93.0   12.8  157.0    6.0    0.0
2002/01/01 23:00   4.12    0.0  222.0   35.0   33.0   99.0   12.8  194.0    6.0    0.0
2002/01/02 05:00   4.12    2.0  118.0   35.0   34.0  100.0   12.7  119.0    6.0    0.0
2002/01/02 06:00   4.12    2.0  155.0   36.0   35.0  100.0   12.7  122.0    4.0    0.0
2002/01/02 07:00   4.12    5.0  144.0   38.0   36.0   88.0   12.7  189.0    8.0    0.0
2002/01/02 08:00   4.12   10.0  162.0   40.0   38.0   78.0   12.7  171.0   15.0   28.0
2002/01/02 09:00   4.12   10.0  148.0   41.0   40.0   75.0   12.7  171.0   15.0   41.0
2002/01/02 10:00   4.12    4.0  140.0   41.0   40.0   78.0   12.8  155.0   14.0  118.0
2002/01/02 11:00   4.12    4.0  148.0   42.0   41.0   77.0   12.9  151.0    7.0  119.0
2002/01/02 12:00   4.12    0.0  297.0   43.0   43.0   77.0   12.9  157.0    6.0  105.0
2002/01/02 13:00   4.12    2.0  145.0   45.0   49.0   72.0   13.4  123.0    4.0  164.0
2002/01/02 14:00   4.12    3.0  130.0   45.0   45.0   75.0   13.2  141.0    7.0  133.0
2002/01/02 15:00   4.12    1.0  244.0   44.0   43.0   78.0   13.0  102.0    5.0    5.0
2002/01/02 16:00   4.24    2.0  212.0   41.0   41.0   99.0   12.9  251.0    6.0    3.0
2002/01/02 17:00   4.33    2.0  245.0   40.0   39.0   97.0   12.9  202.0    5.0    0.0
2002/01/02 18:00   4.40    0.0  167.0   39.0   38.0   93.0   12.8  220.0    5.0    0.0
2002/01/02 19:00   4.40    3.0  170.0   39.0   38.0   93.0   12.7  164.0    4.0    0.0
2002/01/02 20:00   4.40    2.0  193.0   39.0   37.0   89.0   12.7  175.0    4.0    0.0
2002/01/02 21:00   4.40    0.0  114.0   39.0   36.0   92.0   12.7  186.0    5.0    0.0
2002/01/02 22:00   4.40    0.0  101.0   39.0   37.0   95.0   12.7  101.0    2.0    0.0
2002/01/02 23:00   4.40    0.0  267.0   38.0   36.0   91.0   12.7  154.0    2.0    0.0